sensor_id;sensor_type;location;lat;lon;timestamp;pressure;altitude;pressure_sealevel;temperature;humidity
47913;BME280;33676;51.006;17.180;2024-03-02T00:01:27;99445.11;;;10.66;100.00
47913;BME280;33676;51.006;17.180;2024-03-02T00:03:55;99441.61;;;10.68;100.00
47913;BME280;33676;51.006;17.180;2024-03-02T00:06:23;99434.66;;;10.69;100.00
47913;BME280;33676;51.006;17.180;2024-03-02T00:08:57;99432.77;;;10.71;100.00
47913;BME280;33676;51.006;17.180;2024-03-02T00:11:41;99434.67;;;10.73;100.00
47913;BME280;33676;51.006;17.180;2024-03-02T00:14:11;99436.33;;;10.74;100.00
47913;BME280;33676;51.006;17.180;2024-03-02T00:16:38;99437.93;;;10.75;100.00
47913;BME280;33676;51.006;17.180;2024-03-02T00:19:07;99438.73;;;10.76;100.00
47913;BME280;33676;51.006;17.180;2024-03-02T00:21:42;99439.91;;;10.77;100.00
47913;BME280;33676;51.006;17.180;2024-03-02T00:24:35;99435.64;;;10.78;100.00
47913;BME280;33676;51.006;17.180;2024-03-02T00:27:19;99439.89;;;10.77;100.00
47913;BME280;33676;51.006;17.180;2024-03-02T00:33:01;99431.52;;;10.77;100.00
47913;BME280;33676;51.006;17.180;2024-03-02T00:35:30;99432.88;;;10.77;100.00
47913;BME280;33676;51.006;17.180;2024-03-02T00:38:10;99432.27;;;10.78;100.00
47913;BME280;33676;51.006;17.180;2024-03-02T00:40:54;99431.99;;;10.79;100.00
47913;BME280;33676;51.006;17.180;2024-03-02T00:46:25;99424.38;;;10.79;100.00
47913;BME280;33676;51.006;17.180;2024-03-02T00:49:00;99427.94;;;10.78;100.00
47913;BME280;33676;51.006;17.180;2024-03-02T00:51:33;99429.15;;;10.76;100.00
47913;BME280;33676;51.006;17.180;2024-03-02T00:54:09;99427.36;;;10.75;100.00
47913;BME280;33676;51.006;17.180;2024-03-02T00:56:37;99425.08;;;10.73;100.00
47913;BME280;33676;51.006;17.180;2024-03-02T00:59:04;99424.39;;;10.71;100.00
47913;BME280;33676;51.006;17.180;2024-03-02T01:01:31;99425.36;;;10.68;100.00
47913;BME280;33676;51.006;17.180;2024-03-02T01:03:59;99431.13;;;10.64;100.00
47913;BME280;33676;51.006;17.180;2024-03-02T01:06:30;99433.06;;;10.62;100.00
47913;BME280;33676;51.006;17.180;2024-03-02T01:08:59;99432.90;;;10.60;100.00
47913;BME280;33676;51.006;17.180;2024-03-02T01:11:26;99432.41;;;10.59;100.00
47913;BME280;33676;51.006;17.180;2024-03-02T01:13:56;99433.23;;;10.60;100.00
47913;BME280;33676;51.006;17.180;2024-03-02T01:16:23;99432.57;;;10.61;100.00
47913;BME280;33676;51.006;17.180;2024-03-02T01:18:51;99431.73;;;10.63;100.00
47913;BME280;33676;51.006;17.180;2024-03-02T01:21:19;99432.73;;;10.64;100.00
47913;BME280;33676;51.006;17.180;2024-03-02T01:23:47;99433.73;;;10.64;100.00
47913;BME280;33676;51.006;17.180;2024-03-02T01:26:15;99438.23;;;10.65;100.00
47913;BME280;33676;51.006;17.180;2024-03-02T01:28:44;99440.95;;;10.66;100.00
47913;BME280;33676;51.006;17.180;2024-03-02T01:31:13;99442.67;;;10.66;100.00
47913;BME280;33676;51.006;17.180;2024-03-02T01:33:40;99447.41;;;10.66;100.00
47913;BME280;33676;51.006;17.180;2024-03-02T01:36:08;99440.59;;;10.66;100.00
47913;BME280;33676;51.006;17.180;2024-03-02T01:38:36;99444.92;;;10.66;100.00
47913;BME280;33676;51.006;17.180;2024-03-02T01:41:05;99437.89;;;10.65;100.00
47913;BME280;33676;51.006;17.180;2024-03-02T01:49:11;99435.05;;;10.59;100.00
47913;BME280;33676;51.006;17.180;2024-03-02T01:51:50;99436.44;;;10.57;100.00
47913;BME280;33676;51.006;17.180;2024-03-02T02:00:08;99433.21;;;10.50;100.00
47913;BME280;33676;51.006;17.180;2024-03-02T02:06:09;99435.90;;;10.40;100.00
47913;BME280;33676;51.006;17.180;2024-03-02T02:09:19;99429.61;;;10.35;100.00
47913;BME280;33676;51.006;17.180;2024-03-02T02:11:50;99429.23;;;10.30;100.00
47913;BME280;33676;51.006;17.180;2024-03-02T02:14:24;99430.73;;;10.26;100.00
47913;BME280;33676;51.006;17.180;2024-03-02T02:17:51;99431.42;;;10.22;100.00
47913;BME280;33676;51.006;17.180;2024-03-02T02:20:20;99423.27;;;10.20;100.00
47913;BME280;33676;51.006;17.180;2024-03-02T02:23:21;99421.80;;;10.19;100.00
47913;BME280;33676;51.006;17.180;2024-03-02T02:26:10;99424.05;;;10.17;100.00
47913;BME280;33676;51.006;17.180;2024-03-02T02:32:46;99410.20;;;10.13;100.00
47913;BME280;33676;51.006;17.180;2024-03-02T02:38:32;99397.89;;;10.11;100.00
47913;BME280;33676;51.006;17.180;2024-03-02T02:41:26;99394.02;;;10.09;100.00
47913;BME280;33676;51.006;17.180;2024-03-02T02:44:54;99386.52;;;10.07;100.00
47913;BME280;33676;51.006;17.180;2024-03-02T02:47:27;99384.79;;;10.05;100.00
47913;BME280;33676;51.006;17.180;2024-03-02T02:50:47;99387.57;;;10.03;100.00
47913;BME280;33676;51.006;17.180;2024-03-02T02:56:27;99390.64;;;9.94;100.00
47913;BME280;33676;51.006;17.180;2024-03-02T03:02:47;99404.17;;;9.83;100.00
47913;BME280;33676;51.006;17.180;2024-03-02T03:05:39;99410.48;;;9.79;100.00
47913;BME280;33676;51.006;17.180;2024-03-02T03:08:17;99414.20;;;9.77;100.00
47913;BME280;33676;51.006;17.180;2024-03-02T03:10:45;99414.93;;;9.76;100.00
47913;BME280;33676;51.006;17.180;2024-03-02T03:13:14;99413.77;;;9.76;100.00
47913;BME280;33676;51.006;17.180;2024-03-02T03:15:43;99410.46;;;9.75;100.00
47913;BME280;33676;51.006;17.180;2024-03-02T03:18:40;99405.46;;;9.77;100.00
47913;BME280;33676;51.006;17.180;2024-03-02T03:21:10;99409.48;;;9.79;100.00
47913;BME280;33676;51.006;17.180;2024-03-02T03:23:40;99415.55;;;9.81;100.00
47913;BME280;33676;51.006;17.180;2024-03-02T03:26:12;99418.06;;;9.82;100.00
47913;BME280;33676;51.006;17.180;2024-03-02T03:28:50;99411.72;;;9.83;100.00
47913;BME280;33676;51.006;17.180;2024-03-02T03:31:41;99414.12;;;9.84;100.00
47913;BME280;33676;51.006;17.180;2024-03-02T03:34:13;99411.80;;;9.84;100.00
47913;BME280;33676;51.006;17.180;2024-03-02T03:37:21;99413.02;;;9.84;100.00
47913;BME280;33676;51.006;17.180;2024-03-02T03:40:12;99408.41;;;9.85;100.00
47913;BME280;33676;51.006;17.180;2024-03-02T03:42:47;99404.70;;;9.85;100.00
47913;BME280;33676;51.006;17.180;2024-03-02T03:45:16;99400.95;;;9.86;100.00
47913;BME280;33676;51.006;17.180;2024-03-02T03:48:28;99400.13;;;9.86;100.00
47913;BME280;33676;51.006;17.180;2024-03-02T03:51:14;99401.48;;;9.86;100.00
47913;BME280;33676;51.006;17.180;2024-03-02T03:54:16;99397.84;;;9.86;100.00
47913;BME280;33676;51.006;17.180;2024-03-02T03:56:48;99402.10;;;9.87;100.00
47913;BME280;33676;51.006;17.180;2024-03-02T03:59:17;99405.67;;;9.88;100.00
47913;BME280;33676;51.006;17.180;2024-03-02T04:01:47;99407.02;;;9.88;100.00
47913;BME280;33676;51.006;17.180;2024-03-02T04:04:16;99406.82;;;9.89;100.00
47913;BME280;33676;51.006;17.180;2024-03-02T04:07:03;99405.89;;;9.89;100.00
47913;BME280;33676;51.006;17.180;2024-03-02T04:09:47;99409.31;;;9.88;100.00
47913;BME280;33676;51.006;17.180;2024-03-02T04:12:17;99415.69;;;9.85;100.00
47913;BME280;33676;51.006;17.180;2024-03-02T04:15:41;99418.23;;;9.84;100.00
47913;BME280;33676;51.006;17.180;2024-03-02T04:20:56;99410.51;;;9.81;100.00
47913;BME280;33676;51.006;17.180;2024-03-02T04:23:28;99407.73;;;9.79;100.00
47913;BME280;33676;51.006;17.180;2024-03-02T04:25:58;99411.23;;;9.77;100.00
47913;BME280;33676;51.006;17.180;2024-03-02T04:28:33;99413.17;;;9.75;100.00
47913;BME280;33676;51.006;17.180;2024-03-02T04:31:06;99409.96;;;9.72;100.00
47913;BME280;33676;51.006;17.180;2024-03-02T04:33:51;99420.09;;;9.68;100.00
47913;BME280;33676;51.006;17.180;2024-03-02T04:36:33;99419.67;;;9.64;100.00
47913;BME280;33676;51.006;17.180;2024-03-02T04:42:05;99425.16;;;9.55;100.00
47913;BME280;33676;51.006;17.180;2024-03-02T04:44:32;99429.47;;;9.52;100.00
47913;BME280;33676;51.006;17.180;2024-03-02T04:47:00;99430.66;;;9.46;100.00
47913;BME280;33676;51.006;17.180;2024-03-02T04:49:29;99434.31;;;9.43;100.00
47913;BME280;33676;51.006;17.180;2024-03-02T04:51:57;99437.64;;;9.37;100.00
47913;BME280;33676;51.006;17.180;2024-03-02T04:54:24;99440.89;;;9.31;100.00
47913;BME280;33676;51.006;17.180;2024-03-02T04:56:53;99443.36;;;9.26;100.00
47913;BME280;33676;51.006;17.180;2024-03-02T04:59:21;99442.98;;;9.23;100.00
47913;BME280;33676;51.006;17.180;2024-03-02T05:01:50;99443.52;;;9.19;100.00
47913;BME280;33676;51.006;17.180;2024-03-02T05:04:18;99440.98;;;9.16;100.00
47913;BME280;33676;51.006;17.180;2024-03-02T05:06:45;99445.14;;;9.12;100.00
47913;BME280;33676;51.006;17.180;2024-03-02T05:09:19;99448.45;;;9.08;100.00
47913;BME280;33676;51.006;17.180;2024-03-02T05:11:46;99454.73;;;9.04;100.00
47913;BME280;33676;51.006;17.180;2024-03-02T05:14:32;99456.70;;;8.99;100.00
47913;BME280;33676;51.006;17.180;2024-03-02T05:17:00;99459.05;;;8.94;100.00
47913;BME280;33676;51.006;17.180;2024-03-02T05:19:28;99460.70;;;8.91;100.00
47913;BME280;33676;51.006;17.180;2024-03-02T05:21:59;99458.71;;;8.88;100.00
47913;BME280;33676;51.006;17.180;2024-03-02T05:24:29;99457.13;;;8.84;100.00
47913;BME280;33676;51.006;17.180;2024-03-02T05:26:57;99462.46;;;8.81;100.00
47913;BME280;33676;51.006;17.180;2024-03-02T05:29:25;99465.92;;;8.77;100.00
47913;BME280;33676;51.006;17.180;2024-03-02T05:31:54;99463.70;;;8.74;100.00
47913;BME280;33676;51.006;17.180;2024-03-02T05:34:22;99467.70;;;8.70;100.00
47913;BME280;33676;51.006;17.180;2024-03-02T05:36:50;99471.70;;;8.69;100.00
47913;BME280;33676;51.006;17.180;2024-03-02T05:39:17;99470.28;;;8.67;100.00
47913;BME280;33676;51.006;17.180;2024-03-02T05:41:46;99473.80;;;8.66;100.00
47913;BME280;33676;51.006;17.180;2024-03-02T05:44:15;99476.36;;;8.65;100.00
47913;BME280;33676;51.006;17.180;2024-03-02T05:47:18;99475.80;;;8.62;100.00
47913;BME280;33676;51.006;17.180;2024-03-02T05:50:15;99473.87;;;8.61;100.00
47913;BME280;33676;51.006;17.180;2024-03-02T05:53:02;99472.52;;;8.58;100.00
47913;BME280;33676;51.006;17.180;2024-03-02T05:55:34;99473.46;;;8.57;100.00
47913;BME280;33676;51.006;17.180;2024-03-02T05:58:32;99476.59;;;8.57;100.00
47913;BME280;33676;51.006;17.180;2024-03-02T06:01:13;99479.69;;;8.58;100.00
47913;BME280;33676;51.006;17.180;2024-03-02T06:04:08;99481.55;;;8.58;100.00
47913;BME280;33676;51.006;17.180;2024-03-02T06:09:44;99490.29;;;8.60;100.00
47913;BME280;33676;51.006;17.180;2024-03-02T06:12:42;99490.21;;;8.61;100.00
47913;BME280;33676;51.006;17.180;2024-03-02T06:15:11;99486.61;;;8.60;100.00
47913;BME280;33676;51.006;17.180;2024-03-02T06:17:45;99491.45;;;8.61;100.00
47913;BME280;33676;51.006;17.180;2024-03-02T06:20:18;99492.09;;;8.61;100.00
47913;BME280;33676;51.006;17.180;2024-03-02T06:22:55;99491.95;;;8.61;100.00
47913;BME280;33676;51.006;17.180;2024-03-02T06:25:32;99500.90;;;8.63;100.00
47913;BME280;33676;51.006;17.180;2024-03-02T06:28:01;99505.28;;;8.64;100.00
47913;BME280;33676;51.006;17.180;2024-03-02T06:30:34;99512.16;;;8.68;100.00
47913;BME280;33676;51.006;17.180;2024-03-02T06:33:14;99508.51;;;8.72;100.00
47913;BME280;33676;51.006;17.180;2024-03-02T06:36:10;99503.19;;;8.77;100.00
47913;BME280;33676;51.006;17.180;2024-03-02T06:38:47;99505.31;;;8.83;100.00
47913;BME280;33676;51.006;17.180;2024-03-02T06:41:58;99510.17;;;8.89;100.00
47913;BME280;33676;51.006;17.180;2024-03-02T06:45:53;99512.44;;;8.98;100.00
47913;BME280;33676;51.006;17.180;2024-03-02T06:48:48;99520.95;;;9.04;100.00
47913;BME280;33676;51.006;17.180;2024-03-02T06:51:42;99518.45;;;9.11;100.00
47913;BME280;33676;51.006;17.180;2024-03-02T06:54:30;99523.01;;;9.19;100.00
47913;BME280;33676;51.006;17.180;2024-03-02T06:57:03;99527.64;;;9.28;100.00
47913;BME280;33676;51.006;17.180;2024-03-02T06:59:39;99528.24;;;9.37;100.00
47913;BME280;33676;51.006;17.180;2024-03-02T07:08:52;99529.17;;;9.73;100.00
47913;BME280;33676;51.006;17.180;2024-03-02T07:11:35;99531.27;;;9.87;100.00
47913;BME280;33676;51.006;17.180;2024-03-02T07:14:14;99530.23;;;9.99;100.00
47913;BME280;33676;51.006;17.180;2024-03-02T07:17:11;99526.76;;;10.13;100.00
47913;BME280;33676;51.006;17.180;2024-03-02T07:19:57;99524.13;;;10.29;100.00
47913;BME280;33676;51.006;17.180;2024-03-02T07:22:44;99526.21;;;10.44;100.00
47913;BME280;33676;51.006;17.180;2024-03-02T07:25:27;99529.23;;;10.59;100.00
47913;BME280;33676;51.006;17.180;2024-03-02T07:28:00;99530.45;;;10.73;100.00
47913;BME280;33676;51.006;17.180;2024-03-02T07:31:05;99527.35;;;10.88;100.00
47913;BME280;33676;51.006;17.180;2024-03-02T07:33:59;99529.19;;;10.98;100.00
47913;BME280;33676;51.006;17.180;2024-03-02T07:39:45;99535.77;;;11.16;100.00
47913;BME280;33676;51.006;17.180;2024-03-02T07:42:30;99538.32;;;11.24;100.00
47913;BME280;33676;51.006;17.180;2024-03-02T07:45:14;99544.44;;;11.34;100.00
47913;BME280;33676;51.006;17.180;2024-03-02T07:47:58;99547.31;;;11.42;100.00
47913;BME280;33676;51.006;17.180;2024-03-02T07:50:41;99550.44;;;11.51;100.00
47913;BME280;33676;51.006;17.180;2024-03-02T07:53:14;99551.83;;;11.57;100.00
47913;BME280;33676;51.006;17.180;2024-03-02T07:55:59;99563.95;;;11.64;100.00
47913;BME280;33676;51.006;17.180;2024-03-02T07:58:50;99561.82;;;11.72;100.00
47913;BME280;33676;51.006;17.180;2024-03-02T08:01:19;99564.44;;;11.82;100.00
47913;BME280;33676;51.006;17.180;2024-03-02T08:03:46;99563.96;;;11.90;100.00
47913;BME280;33676;51.006;17.180;2024-03-02T08:06:28;99563.45;;;11.99;100.00
47913;BME280;33676;51.006;17.180;2024-03-02T08:09:00;99559.19;;;12.11;100.00
47913;BME280;33676;51.006;17.180;2024-03-02T08:11:34;99553.60;;;12.21;100.00
47913;BME280;33676;51.006;17.180;2024-03-02T08:16:50;99553.73;;;12.45;100.00
47913;BME280;33676;51.006;17.180;2024-03-02T08:20:11;99556.39;;;12.61;100.00
47913;BME280;33676;51.006;17.180;2024-03-02T08:22:49;99553.05;;;12.76;100.00
47913;BME280;33676;51.006;17.180;2024-03-02T08:25:16;99556.25;;;12.93;100.00
47913;BME280;33676;51.006;17.180;2024-03-02T08:27:44;99550.25;;;13.09;100.00
47913;BME280;33676;51.006;17.180;2024-03-02T08:30:12;99549.78;;;13.26;100.00
47913;BME280;33676;51.006;17.180;2024-03-02T08:32:40;99551.96;;;13.41;100.00
47913;BME280;33676;51.006;17.180;2024-03-02T08:35:09;99547.38;;;13.54;100.00
47913;BME280;33676;51.006;17.180;2024-03-02T08:37:42;99540.97;;;13.70;100.00
47913;BME280;33676;51.006;17.180;2024-03-02T08:40:11;99538.67;;;13.91;100.00
47913;BME280;33676;51.006;17.180;2024-03-02T08:42:45;99538.83;;;14.13;100.00
47913;BME280;33676;51.006;17.180;2024-03-02T08:45:19;99540.54;;;14.32;100.00
47913;BME280;33676;51.006;17.180;2024-03-02T08:47:48;99538.94;;;14.45;100.00
47913;BME280;33676;51.006;17.180;2024-03-02T08:50:16;99542.33;;;14.53;100.00
47913;BME280;33676;51.006;17.180;2024-03-02T08:52:45;99542.60;;;14.59;100.00
47913;BME280;33676;51.006;17.180;2024-03-02T08:55:12;99547.52;;;14.64;100.00
47913;BME280;33676;51.006;17.180;2024-03-02T08:58:09;99544.03;;;14.70;100.00
47913;BME280;33676;51.006;17.180;2024-03-02T09:01:05;99545.06;;;14.75;100.00
47913;BME280;33676;51.006;17.180;2024-03-02T09:04:18;99547.52;;;14.87;100.00
47913;BME280;33676;51.006;17.180;2024-03-02T09:10:14;99554.18;;;15.02;100.00
47913;BME280;33676;51.006;17.180;2024-03-02T09:12:42;99547.47;;;15.08;100.00
47913;BME280;33676;51.006;17.180;2024-03-02T09:15:27;99549.36;;;15.18;100.00
47913;BME280;33676;51.006;17.180;2024-03-02T09:20:57;99549.50;;;15.41;100.00
47913;BME280;33676;51.006;17.180;2024-03-02T09:23:46;99551.77;;;15.48;100.00
47913;BME280;33676;51.006;17.180;2024-03-02T09:26:15;99551.95;;;15.58;100.00
47913;BME280;33676;51.006;17.180;2024-03-02T09:28:43;99550.42;;;15.65;100.00
47913;BME280;33676;51.006;17.180;2024-03-02T09:31:11;99550.96;;;15.72;100.00
47913;BME280;33676;51.006;17.180;2024-03-02T09:33:42;99547.67;;;15.78;100.00
47913;BME280;33676;51.006;17.180;2024-03-02T09:36:41;99550.32;;;15.86;100.00
47913;BME280;33676;51.006;17.180;2024-03-02T09:39:21;99548.27;;;15.97;100.00
47913;BME280;33676;51.006;17.180;2024-03-02T09:42:15;99548.27;;;16.04;100.00
47913;BME280;33676;51.006;17.180;2024-03-02T09:44:43;99542.76;;;16.10;100.00
47913;BME280;33676;51.006;17.180;2024-03-02T09:47:15;99540.88;;;16.18;100.00
47913;BME280;33676;51.006;17.180;2024-03-02T09:50:36;99542.38;;;16.28;100.00
47913;BME280;33676;51.006;17.180;2024-03-02T09:53:20;99544.34;;;16.39;100.00
47913;BME280;33676;51.006;17.180;2024-03-02T09:58:46;99541.38;;;16.63;100.00
47913;BME280;33676;51.006;17.180;2024-03-02T10:01:14;99543.44;;;16.71;100.00
47913;BME280;33676;51.006;17.180;2024-03-02T10:03:44;99545.90;;;16.79;100.00
47913;BME280;33676;51.006;17.180;2024-03-02T10:06:23;99546.41;;;16.87;100.00
47913;BME280;33676;51.006;17.180;2024-03-02T10:09:11;99547.86;;;16.96;100.00
47913;BME280;33676;51.006;17.180;2024-03-02T10:12:07;99548.92;;;17.03;100.00
47913;BME280;33676;51.006;17.180;2024-03-02T10:14:44;99547.13;;;17.12;100.00
47913;BME280;33676;51.006;17.180;2024-03-02T10:18:35;99544.49;;;17.23;100.00
47913;BME280;33676;51.006;17.180;2024-03-02T10:21:33;99544.27;;;17.34;100.00
47913;BME280;33676;51.006;17.180;2024-03-02T10:24:08;99542.52;;;17.42;100.00
47913;BME280;33676;51.006;17.180;2024-03-02T10:27:26;99538.14;;;17.46;100.00
47913;BME280;33676;51.006;17.180;2024-03-02T10:29:55;99534.02;;;17.53;100.00
47913;BME280;33676;51.006;17.180;2024-03-02T10:35:36;99521.27;;;17.68;100.00
47913;BME280;33676;51.006;17.180;2024-03-02T10:38:34;99517.39;;;17.76;100.00
47913;BME280;33676;51.006;17.180;2024-03-02T10:41:02;99517.33;;;17.86;100.00
47913;BME280;33676;51.006;17.180;2024-03-02T10:43:32;99517.05;;;17.91;100.00
47913;BME280;33676;51.006;17.180;2024-03-02T10:45:59;99519.96;;;17.92;100.00
47913;BME280;33676;51.006;17.180;2024-03-02T10:48:27;99520.10;;;17.90;100.00
47913;BME280;33676;51.006;17.180;2024-03-02T10:50:55;99518.24;;;17.89;100.00
47913;BME280;33676;51.006;17.180;2024-03-02T10:53:24;99520.67;;;17.96;100.00
47913;BME280;33676;51.006;17.180;2024-03-02T10:55:56;99523.41;;;18.03;100.00
47913;BME280;33676;51.006;17.180;2024-03-02T10:58:32;99523.98;;;18.10;100.00
47913;BME280;33676;51.006;17.180;2024-03-02T11:01:03;99521.99;;;18.17;100.00
47913;BME280;33676;51.006;17.180;2024-03-02T11:03:33;99519.29;;;18.26;100.00
47913;BME280;33676;51.006;17.180;2024-03-02T11:06:07;99521.38;;;18.31;100.00
47913;BME280;33676;51.006;17.180;2024-03-02T11:08:36;99520.63;;;18.30;99.88
47913;BME280;33676;51.006;17.180;2024-03-02T11:11:15;99518.69;;;18.27;99.79
47913;BME280;33676;51.006;17.180;2024-03-02T11:13:51;99516.29;;;18.28;99.94
47913;BME280;33676;51.006;17.180;2024-03-02T11:16:34;99516.96;;;18.33;100.00
47913;BME280;33676;51.006;17.180;2024-03-02T11:34:49;99496.13;;;18.96;99.69
47913;BME280;33676;51.006;17.180;2024-03-02T11:37:27;99499.32;;;18.97;99.05
47913;BME280;33676;51.006;17.180;2024-03-02T11:39:55;99503.77;;;18.97;98.56
47913;BME280;33676;51.006;17.180;2024-03-02T11:42:24;99499.02;;;19.00;98.94
47913;BME280;33676;51.006;17.180;2024-03-02T11:44:56;99500.74;;;19.05;98.87
47913;BME280;33676;51.006;17.180;2024-03-02T11:47:31;99502.95;;;19.06;98.39
47913;BME280;33676;51.006;17.180;2024-03-02T11:50:06;99504.58;;;19.04;98.07
47913;BME280;33676;51.006;17.180;2024-03-02T11:52:35;99504.20;;;19.03;97.93
47913;BME280;33676;51.006;17.180;2024-03-02T11:55:05;99504.00;;;18.99;97.64
47913;BME280;33676;51.006;17.180;2024-03-02T11:57:38;99507.00;;;18.97;97.82
47913;BME280;33676;51.006;17.180;2024-03-02T12:00:17;99504.39;;;18.96;97.74
47913;BME280;33676;51.006;17.180;2024-03-02T12:02:48;99503.33;;;18.92;97.16
47913;BME280;33676;51.006;17.180;2024-03-02T12:05:28;99503.11;;;18.91;97.05
47913;BME280;33676;51.006;17.180;2024-03-02T12:07:58;99507.39;;;18.94;97.21
47913;BME280;33676;51.006;17.180;2024-03-02T12:10:26;99507.77;;;18.95;97.21
47913;BME280;33676;51.006;17.180;2024-03-02T12:12:59;99503.73;;;18.98;97.09
47913;BME280;33676;51.006;17.180;2024-03-02T12:15:34;99503.09;;;19.02;97.01
47913;BME280;33676;51.006;17.180;2024-03-02T12:18:06;99498.99;;;19.07;96.87
47913;BME280;33676;51.006;17.180;2024-03-02T12:20:35;99496.25;;;19.07;96.51
47913;BME280;33676;51.006;17.180;2024-03-02T12:23:04;99495.75;;;19.06;96.25
47913;BME280;33676;51.006;17.180;2024-03-02T12:25:33;99495.44;;;19.07;95.98
47913;BME280;33676;51.006;17.180;2024-03-02T12:28:02;99493.12;;;19.08;95.88
47913;BME280;33676;51.006;17.180;2024-03-02T12:30:35;99490.75;;;19.09;95.64
47913;BME280;33676;51.006;17.180;2024-03-02T12:33:04;99489.59;;;19.07;95.21
47913;BME280;33676;51.006;17.180;2024-03-02T12:35:33;99487.52;;;19.05;94.96
47913;BME280;33676;51.006;17.180;2024-03-02T12:38:04;99488.41;;;19.08;95.16
47913;BME280;33676;51.006;17.180;2024-03-02T12:40:33;99492.13;;;19.13;95.20
47913;BME280;33676;51.006;17.180;2024-03-02T12:43:01;99497.09;;;19.24;95.57
47913;BME280;33676;51.006;17.180;2024-03-02T12:45:30;99497.66;;;19.36;95.75
47913;BME280;33676;51.006;17.180;2024-03-02T12:48:00;99496.56;;;19.43;95.37
47913;BME280;33676;51.006;17.180;2024-03-02T12:50:30;99493.52;;;19.48;94.98
47913;BME280;33676;51.006;17.180;2024-03-02T12:52:59;99496.17;;;19.57;95.17
47913;BME280;33676;51.006;17.180;2024-03-02T12:55:28;99494.32;;;19.67;95.11
47913;BME280;33676;51.006;17.180;2024-03-02T12:57:57;99492.17;;;19.75;94.98
47913;BME280;33676;51.006;17.180;2024-03-02T13:00:27;99491.75;;;19.82;94.93
47913;BME280;33676;51.006;17.180;2024-03-02T13:02:56;99489.77;;;19.88;94.59
47913;BME280;33676;51.006;17.180;2024-03-02T13:05:30;99487.78;;;19.93;94.43
47913;BME280;33676;51.006;17.180;2024-03-02T13:08:00;99486.75;;;19.99;94.29
47913;BME280;33676;51.006;17.180;2024-03-02T13:10:32;99483.48;;;20.04;94.01
47913;BME280;33676;51.006;17.180;2024-03-02T13:13:01;99485.67;;;20.06;93.83
47913;BME280;33676;51.006;17.180;2024-03-02T13:15:29;99487.75;;;20.06;93.46
47913;BME280;33676;51.006;17.180;2024-03-02T13:18:01;99481.48;;;20.06;93.01
47913;BME280;33676;51.006;17.180;2024-03-02T13:20:31;99482.22;;;20.04;92.95
47913;BME280;33676;51.006;17.180;2024-03-02T13:23:03;99483.69;;;20.03;92.79
47913;BME280;33676;51.006;17.180;2024-03-02T13:25:32;99480.03;;;19.99;92.25
47913;BME280;33676;51.006;17.180;2024-03-02T13:28:01;99478.56;;;19.91;91.58
47913;BME280;33676;51.006;17.180;2024-03-02T13:30:30;99479.98;;;19.79;91.29
47913;BME280;33676;51.006;17.180;2024-03-02T13:32:59;99478.78;;;19.68;91.04
47913;BME280;33676;51.006;17.180;2024-03-02T13:35:27;99482.61;;;19.53;90.71
47913;BME280;33676;51.006;17.180;2024-03-02T13:37:56;99483.76;;;19.43;90.67
47913;BME280;33676;51.006;17.180;2024-03-02T13:40:24;99483.08;;;19.31;90.58
47913;BME280;33676;51.006;17.180;2024-03-02T13:42:53;99483.64;;;19.23;90.60
47913;BME280;33676;51.006;17.180;2024-03-02T13:45:22;99486.54;;;19.14;90.60
47913;BME280;33676;51.006;17.180;2024-03-02T13:47:51;99485.46;;;19.07;90.88
47913;BME280;33676;51.006;17.180;2024-03-02T13:50:21;99487.28;;;19.04;91.09
47913;BME280;33676;51.006;17.180;2024-03-02T13:52:57;99485.65;;;19.00;91.31
47913;BME280;33676;51.006;17.180;2024-03-02T13:55:26;99490.83;;;18.93;90.94
47913;BME280;33676;51.006;17.180;2024-03-02T13:58:15;99495.08;;;18.83;90.56
47913;BME280;33676;51.006;17.180;2024-03-02T14:00:44;99497.20;;;18.73;90.38
47913;BME280;33676;51.006;17.180;2024-03-02T14:03:13;99498.16;;;18.61;90.13
47913;BME280;33676;51.006;17.180;2024-03-02T14:05:43;99500.11;;;18.50;89.95
47913;BME280;33676;51.006;17.180;2024-03-02T14:08:16;99503.28;;;18.37;89.80
47913;BME280;33676;51.006;17.180;2024-03-02T14:10:53;99508.63;;;18.25;89.95
47913;BME280;33676;51.006;17.180;2024-03-02T14:13:24;99503.48;;;18.15;90.00
47913;BME280;33676;51.006;17.180;2024-03-02T14:15:56;99505.09;;;18.04;89.83
47913;BME280;33676;51.006;17.180;2024-03-02T14:18:25;99507.38;;;17.91;89.73
47913;BME280;33676;51.006;17.180;2024-03-02T14:20:54;99505.23;;;17.79;89.67
47913;BME280;33676;51.006;17.180;2024-03-02T14:23:25;99500.38;;;17.67;89.66
47913;BME280;33676;51.006;17.180;2024-03-02T14:25:54;99501.55;;;17.55;89.74
47913;BME280;33676;51.006;17.180;2024-03-02T14:28:23;99500.79;;;17.44;89.75
47913;BME280;33676;51.006;17.180;2024-03-02T14:31:11;99505.89;;;17.34;89.83
47913;BME280;33676;51.006;17.180;2024-03-02T14:33:41;99509.23;;;17.25;89.99
47913;BME280;33676;51.006;17.180;2024-03-02T14:36:10;99508.66;;;17.16;90.07
47913;BME280;33676;51.006;17.180;2024-03-02T14:38:39;99513.03;;;17.08;90.23
47913;BME280;33676;51.006;17.180;2024-03-02T14:41:08;99511.05;;;16.99;90.21
47913;BME280;33676;51.006;17.180;2024-03-02T14:43:37;99509.05;;;16.89;90.22
47913;BME280;33676;51.006;17.180;2024-03-02T14:46:06;99510.44;;;16.80;90.23
47913;BME280;33676;51.006;17.180;2024-03-02T14:48:38;99505.42;;;16.71;90.39
47913;BME280;33676;51.006;17.180;2024-03-02T14:51:07;99499.37;;;16.62;90.48
47913;BME280;33676;51.006;17.180;2024-03-02T14:53:36;99495.83;;;16.53;90.38
47913;BME280;33676;51.006;17.180;2024-03-02T14:56:11;99496.35;;;16.43;90.42
47913;BME280;33676;51.006;17.180;2024-03-02T14:58:42;99496.80;;;16.33;90.31